Aviation Digital Data Service (ADDS)

Output produced by METARs form (1811 UTC 14 August 2018)
found at http://www.aviationweather.gov/adds/metars/
 
UTAA 141800Z 26004KT 9999 NSC 30/09 Q1009 R88/CLRD70 NOSIG
TAF UTAA 141630Z 1418/1518 28016KT 6000 SCT050 530009 
     TEMPO 1418/1424 21014KT 
     TEMPO 1500/1507 31014G24KT 
     BECMG 1507/1508 02016KT 
     TEMPO 1508/1515 32016KT
       
UTAA 141800Z 26004KT 9999 NSC 30/09 Q1009 R88/CLRD70 NOSIG
TAF UTAA 141630Z 1418/1518 28016KT 6000 SCT050 530009 
     TEMPO 1418/1424 21014KT 
     TEMPO 1500/1507 31014G24KT 
     BECMG 1507/1508 02016KT 
     TEMPO 1508/1515 32016KT
       
UTAK 141800Z 35012KT CAVOK 24/15 Q1012 NOSIG
TAF UTAK 141630Z 1417/1518 32018G28KT 6000 SCT016 SCT040CB OVC100 530009 
     TEMPO 1417/1422 26018KT 
     PROB40 
     TEMPO 1417/1422 -TSRA BKN004 SCT020CB 570007
       
UTAM 141800Z 36006KT 6000 NSC 26/08 Q1008 NOSIG
TAF UTAM 141630Z 1418/1518 01012KT 5000 NSC 530009 
     TEMPO 1418/1424 33014KT 
     BECMG 1504/1505 02014KT CAVOK 
     TEMPO 1506/1515 01014G24KT 3000 DRDU SCT050
       
UTAT 141800Z 02006KT CAVOK 28/14 Q1009 NOSIG
TAF UTAT 141646Z 1418/1518 03014KT 9999 SCT050 BKN100 530005 
     TEMPO 1418/1424 33014G24KT 3000 -SHRA SCT030CB OVC100 
     PROB40 
     TEMPO 1420/1424 VRB28KT 2000 TSRA
       
UTAV 141800Z 30006KT CAVOK 27/09 Q1007 NOSIG
TAF UTAV 141630Z 1418/1518 32014KT CAVOK 530007 
     TEMPO 1418/1424 02012G22KT 3000 DRDU
       
UTDD 141800Z VRB02MPS 8000 NSC 24/12 Q1010 R09/D NOSIG RMK QFE689/0919
TAF UTDD 141800Z 1419/1507 VRB02MPS 6000 FEW066 SCT150 
     TEMPO 1419/1507 07005MPS
       
UTDK 141800Z 02005MPS 9999 NSC 28/12 Q1009 R01/09//70 RMK QFE700/0933
TAF UTDK 141800Z 1419/1504 03005MPS 5000 HZ FEW060 SCT100 
     TEMPO 1419/1504 VRB02MPS
       
UTDL 141800Z 24005MPS 9999 NSC 25/12 Q1008 R26/CLRD70 NOSIG RMK QFE718/0958
TAF UTDL 141800Z 1419/1504 24005MPS 9999 NSC 
     TEMPO 1422/1504 VRB02MPS
       
UTDT 141800Z 10002MPS 8000 FEW100 25/15 Q1006 35////// RMK QFE716/0954
TAF UTDT 141800Z 1419/1504 VRB02MPS 5000 HZ FEW060 SCT100
       
UTFF 141730Z 14004KT 9999 NSC 27/13 Q1009 R18/CLRD70
TAF UTFF 141800Z 1419/1504 14010KT 9999 NSC
       
UTFN 141730Z 06004KT 9000 NSC 27/16 Q1008 R28/CLRD70 NOSIG
TAF UTFN 141700Z 1418/1518 33010KT 9999 FEW050CB TX36/1510 TN22/1500Z
       
UTNN 141730Z 25002KT CAVOK 28/16 Q1010 R33/CLRD60 NOSIG
TAF UTNN 141700Z 1418/1518 VRB04KT 9999 SCT060CB SCT100 
     TEMPO 1418/1424 29019G29KT -TSRA 
     BECMG 1500/1502 32014G24KT
       
UTNU 141730Z 35004KT CAVOK 26/16 Q1009 R31/CLRD70 NOSIG
TAF UTNU 141705Z 1418/1518 27012G22KT 6000 BKN030CB OVC100 
     TEMPO 1418/1424 VRB20G30KT 3000 -TSRA -DS OVC010CB
       
UTSA 141800Z 00000KT 9999 NSC 27/02 Q1008 R07/CLRD70 NOSIG
TAF UTSA 141701Z 1418/1518 VRB03KT 7000 NSC TX38/1511Z 
     TEMPO 1418/1505 02012KT
       
UTSB 141730Z 34008KT CAVOK 27/08 Q1007 R01/CLRD70 NOSIG
TAF UTSB 141700Z 1418/1518 VRB03KT 7000 NSC TX38/1511Z 
     TEMPO 1418/1505 36012KT
       
UTSK 141730Z 34008KT CAVOK 30/04 Q1007 R16/CLRD70
TAF UTSK 141150Z 1413/1422 33010G20KT CAVOK TX35/1413Z
       
UTSS 141730Z 16006KT 6000 NSC 26/07 Q1009 R09/70D NOSIG
TAF UTSS 141700Z 1418/1518 13010G20KT 9999 NSC TX36/1509Z 
     TEMPO 1418/1424 06010G20KT
       
UTST 141730Z 22002KT CAVOK 29/05 Q1005 R88/CLRD70 NOSIG
TAF UTST 141700Z 1418/1518 VRB06KT 6000 NSC TX38/1511Z 
     TEMPO 1418/1505 23010G20KT
       
UTTT 141730Z 15004KT CAVOK 26/14 Q1008 R08R/CLRD70 NOSIG
TAF COR UTTT 141100Z 1418/1518 07012KT 7000 NSC TX37/1510Z
       
UTAT 141800Z 02006KT CAVOK 28/14 Q1009 NOSIG
TAF UTAT 141646Z 1418/1518 03014KT 9999 SCT050 BKN100 530005 
     TEMPO 1418/1424 33014G24KT 3000 -SHRA SCT030CB OVC100 
     PROB40 
     TEMPO 1420/1424 VRB28KT 2000 TSRA
       
UTAM 141800Z 36006KT 6000 NSC 26/08 Q1008 NOSIG
TAF UTAM 141630Z 1418/1518 01012KT 5000 NSC 530009 
     TEMPO 1418/1424 33014KT 
     BECMG 1504/1505 02014KT CAVOK 
     TEMPO 1506/1515 01014G24KT 3000 DRDU SCT050
       
UTAV 141800Z 30006KT CAVOK 27/09 Q1007 NOSIG
TAF UTAV 141630Z 1418/1518 32014KT CAVOK 530007 
     TEMPO 1418/1424 02012G22KT 3000 DRDU
       
UTAK 141800Z 35012KT CAVOK 24/15 Q1012 NOSIG
TAF UTAK 141630Z 1417/1518 32018G28KT 6000 SCT016 SCT040CB OVC100 530009 
     TEMPO 1417/1422 26018KT 
     PROB40 
     TEMPO 1417/1422 -TSRA BKN004 SCT020CB 570007